sensor_id;sensor_type;location;lat;lon;timestamp;pressure;altitude;pressure_sealevel;temperature;humidity
53300;BME280;39187;48.476;8.310;2023-10-19T00:00:33;89859.00;;;11.24;100.00
53300;BME280;39187;48.476;8.310;2023-10-19T00:03:04;89854.25;;;11.29;100.00
53300;BME280;39187;48.476;8.310;2023-10-19T00:05:34;89861.19;;;11.35;100.00
53300;BME280;39187;48.476;8.310;2023-10-19T00:08:05;89832.31;;;11.34;100.00
53300;BME280;39187;48.476;8.310;2023-10-19T00:10:40;89842.41;;;11.30;100.00
53300;BME280;39187;48.476;8.310;2023-10-19T00:13:09;89840.63;;;11.26;100.00
53300;BME280;39187;48.476;8.310;2023-10-19T00:15:40;89828.06;;;11.27;100.00
53300;BME280;39187;48.476;8.310;2023-10-19T00:18:11;89844.44;;;11.35;100.00
53300;BME280;39187;48.476;8.310;2023-10-19T00:20:51;89835.84;;;11.40;100.00
53300;BME280;39187;48.476;8.310;2023-10-19T00:23:36;89829.31;;;11.41;100.00
53300;BME280;39187;48.476;8.310;2023-10-19T00:26:05;89836.53;;;11.49;100.00
53300;BME280;39187;48.476;8.310;2023-10-19T00:28:34;89828.56;;;11.49;100.00
53300;BME280;39187;48.476;8.310;2023-10-19T00:31:01;89830.03;;;11.50;100.00
53300;BME280;39187;48.476;8.310;2023-10-19T00:33:33;89835.59;;;11.61;100.00
53300;BME280;39187;48.476;8.310;2023-10-19T00:36:02;89831.91;;;11.59;100.00
53300;BME280;39187;48.476;8.310;2023-10-19T00:38:37;89832.75;;;11.65;100.00
53300;BME280;39187;48.476;8.310;2023-10-19T00:41:17;89826.22;;;11.66;100.00
53300;BME280;39187;48.476;8.310;2023-10-19T00:43:56;89833.38;;;11.60;100.00
53300;BME280;39187;48.476;8.310;2023-10-19T00:46:30;89827.41;;;11.65;100.00
53300;BME280;39187;48.476;8.310;2023-10-19T00:49:10;89823.69;;;11.72;100.00
53300;BME280;39187;48.476;8.310;2023-10-19T00:51:39;89819.56;;;11.71;100.00
53300;BME280;39187;48.476;8.310;2023-10-19T00:54:15;89820.31;;;11.71;100.00
53300;BME280;39187;48.476;8.310;2023-10-19T00:56:43;89813.94;;;11.78;100.00
53300;BME280;39187;48.476;8.310;2023-10-19T00:59:22;89807.38;;;11.79;100.00
53300;BME280;39187;48.476;8.310;2023-10-19T01:01:52;89816.41;;;11.81;100.00
53300;BME280;39187;48.476;8.310;2023-10-19T01:04:37;89806.19;;;11.80;100.00
53300;BME280;39187;48.476;8.310;2023-10-19T01:07:09;89815.50;;;11.84;100.00
53300;BME280;39187;48.476;8.310;2023-10-19T01:09:57;89810.66;;;11.97;100.00
53300;BME280;39187;48.476;8.310;2023-10-19T01:12:24;89800.19;;;11.94;100.00
53300;BME280;39187;48.476;8.310;2023-10-19T01:15:18;89803.13;;;11.96;100.00
53300;BME280;39187;48.476;8.310;2023-10-19T01:17:55;89784.13;;;12.03;100.00
53300;BME280;39187;48.476;8.310;2023-10-19T01:20:30;89797.16;;;12.01;100.00
53300;BME280;39187;48.476;8.310;2023-10-19T01:23:07;89794.31;;;12.04;100.00
53300;BME280;39187;48.476;8.310;2023-10-19T01:25:53;89788.25;;;12.04;100.00
53300;BME280;39187;48.476;8.310;2023-10-19T01:28:20;89795.78;;;12.05;100.00
53300;BME280;39187;48.476;8.310;2023-10-19T01:30:47;89790.41;;;12.15;100.00
53300;BME280;39187;48.476;8.310;2023-10-19T01:33:17;89776.88;;;12.18;100.00
53300;BME280;39187;48.476;8.310;2023-10-19T01:35:45;89774.41;;;12.15;100.00
53300;BME280;39187;48.476;8.310;2023-10-19T01:38:30;89788.38;;;12.24;100.00
53300;BME280;39187;48.476;8.310;2023-10-19T01:41:05;89779.00;;;12.14;100.00
53300;BME280;39187;48.476;8.310;2023-10-19T01:43:42;89776.81;;;12.27;100.00
53300;BME280;39187;48.476;8.310;2023-10-19T01:46:08;89777.66;;;12.33;100.00
53300;BME280;39187;48.476;8.310;2023-10-19T01:48:43;89781.69;;;12.29;100.00
53300;BME280;39187;48.476;8.310;2023-10-19T01:51:11;89785.38;;;12.31;100.00
53300;BME280;39187;48.476;8.310;2023-10-19T01:53:37;89788.69;;;12.41;100.00
53300;BME280;39187;48.476;8.310;2023-10-19T01:56:13;89779.09;;;12.20;100.00
53300;BME280;39187;48.476;8.310;2023-10-19T01:58:44;89772.94;;;12.28;100.00
53300;BME280;39187;48.476;8.310;2023-10-19T02:01:12;89767.72;;;12.49;100.00
53300;BME280;39187;48.476;8.310;2023-10-19T02:03:42;89759.22;;;12.35;100.00
53300;BME280;39187;48.476;8.310;2023-10-19T02:06:09;89757.03;;;12.49;100.00
53300;BME280;39187;48.476;8.310;2023-10-19T02:09:00;89756.94;;;12.43;100.00
53300;BME280;39187;48.476;8.310;2023-10-19T02:11:27;89753.06;;;12.29;100.00
53300;BME280;39187;48.476;8.310;2023-10-19T02:13:55;89745.81;;;12.30;100.00
53300;BME280;39187;48.476;8.310;2023-10-19T02:16:25;89747.38;;;12.22;100.00
53300;BME280;39187;48.476;8.310;2023-10-19T02:18:52;89737.25;;;12.26;100.00
53300;BME280;39187;48.476;8.310;2023-10-19T02:21:18;89743.69;;;12.34;100.00
53300;BME280;39187;48.476;8.310;2023-10-19T02:23:50;89744.44;;;12.34;100.00
53300;BME280;39187;48.476;8.310;2023-10-19T02:26:17;89738.28;;;12.28;100.00
53300;BME280;39187;48.476;8.310;2023-10-19T02:28:48;89732.66;;;12.26;100.00
53300;BME280;39187;48.476;8.310;2023-10-19T02:31:16;89729.19;;;12.35;100.00
53300;BME280;39187;48.476;8.310;2023-10-19T02:33:46;89726.97;;;12.33;100.00
53300;BME280;39187;48.476;8.310;2023-10-19T02:36:13;89733.84;;;12.25;100.00
53300;BME280;39187;48.476;8.310;2023-10-19T02:38:42;89709.75;;;12.20;100.00
53300;BME280;39187;48.476;8.310;2023-10-19T02:41:16;89730.16;;;12.37;100.00
53300;BME280;39187;48.476;8.310;2023-10-19T02:43:46;89729.78;;;12.30;100.00
53300;BME280;39187;48.476;8.310;2023-10-19T02:46:38;89718.56;;;12.26;100.00
53300;BME280;39187;48.476;8.310;2023-10-19T02:49:08;89721.16;;;12.20;100.00
53300;BME280;39187;48.476;8.310;2023-10-19T02:51:41;89712.34;;;12.29;100.00
53300;BME280;39187;48.476;8.310;2023-10-19T02:54:12;89718.22;;;12.33;100.00
53300;BME280;39187;48.476;8.310;2023-10-19T02:57:03;89720.59;;;12.31;100.00
53300;BME280;39187;48.476;8.310;2023-10-19T02:59:32;89716.19;;;12.28;100.00
53300;BME280;39187;48.476;8.310;2023-10-19T03:01:59;89712.13;;;12.32;100.00
53300;BME280;39187;48.476;8.310;2023-10-19T03:04:37;89702.56;;;12.26;100.00
53300;BME280;39187;48.476;8.310;2023-10-19T03:07:04;89705.34;;;12.31;100.00
53300;BME280;39187;48.476;8.310;2023-10-19T03:09:30;89702.28;;;12.24;100.00
53300;BME280;39187;48.476;8.310;2023-10-19T03:11:57;89706.53;;;12.30;100.00
53300;BME280;39187;48.476;8.310;2023-10-19T03:14:28;89702.66;;;12.17;100.00
53300;BME280;39187;48.476;8.310;2023-10-19T03:16:54;89702.66;;;12.46;100.00
53300;BME280;39187;48.476;8.310;2023-10-19T03:19:23;89705.03;;;12.29;100.00
53300;BME280;39187;48.476;8.310;2023-10-19T03:21:53;89695.31;;;12.41;100.00
53300;BME280;39187;48.476;8.310;2023-10-19T03:24:20;89698.34;;;12.34;100.00
53300;BME280;39187;48.476;8.310;2023-10-19T03:27:03;89683.16;;;12.40;100.00
53300;BME280;39187;48.476;8.310;2023-10-19T03:29:46;89684.81;;;12.23;100.00
53300;BME280;39187;48.476;8.310;2023-10-19T03:32:14;89681.97;;;12.12;100.00
53300;BME280;39187;48.476;8.310;2023-10-19T03:34:41;89672.31;;;12.29;100.00
53300;BME280;39187;48.476;8.310;2023-10-19T03:37:12;89678.28;;;12.24;100.00
53300;BME280;39187;48.476;8.310;2023-10-19T03:39:39;89673.88;;;12.21;100.00
53300;BME280;39187;48.476;8.310;2023-10-19T03:42:05;89670.75;;;12.22;100.00
53300;BME280;39187;48.476;8.310;2023-10-19T03:44:34;89669.56;;;12.09;100.00
53300;BME280;39187;48.476;8.310;2023-10-19T03:47:35;89674.25;;;12.28;100.00
53300;BME280;39187;48.476;8.310;2023-10-19T03:50:02;89657.06;;;12.15;100.00
53300;BME280;39187;48.476;8.310;2023-10-19T03:52:39;89663.94;;;12.07;100.00
53300;BME280;39187;48.476;8.310;2023-10-19T03:55:05;89659.53;;;12.18;100.00
53300;BME280;39187;48.476;8.310;2023-10-19T03:57:36;89668.91;;;11.99;100.00
53300;BME280;39187;48.476;8.310;2023-10-19T04:00:07;89660.81;;;12.08;100.00
53300;BME280;39187;48.476;8.310;2023-10-19T04:02:36;89659.53;;;11.89;100.00
53300;BME280;39187;48.476;8.310;2023-10-19T04:05:04;89661.63;;;11.99;100.00
53300;BME280;39187;48.476;8.310;2023-10-19T04:07:29;89659.63;;;12.09;100.00
53300;BME280;39187;48.476;8.310;2023-10-19T04:09:57;89651.72;;;12.00;100.00
53300;BME280;39187;48.476;8.310;2023-10-19T04:12:31;89655.03;;;11.95;100.00
53300;BME280;39187;48.476;8.310;2023-10-19T04:14:58;89652.34;;;11.95;100.00
53300;BME280;39187;48.476;8.310;2023-10-19T04:17:35;89645.28;;;11.77;100.00
53300;BME280;39187;48.476;8.310;2023-10-19T04:20:02;89658.03;;;11.88;100.00
53300;BME280;39187;48.476;8.310;2023-10-19T04:22:38;89650.84;;;11.79;100.00
53300;BME280;39187;48.476;8.310;2023-10-19T04:25:04;89654.44;;;11.91;100.00
53300;BME280;39187;48.476;8.310;2023-10-19T04:27:31;89645.34;;;11.83;100.00
53300;BME280;39187;48.476;8.310;2023-10-19T04:30:01;89651.25;;;11.87;100.00
53300;BME280;39187;48.476;8.310;2023-10-19T04:32:27;89663.28;;;11.82;100.00
53300;BME280;39187;48.476;8.310;2023-10-19T04:34:53;89660.63;;;11.82;100.00
53300;BME280;39187;48.476;8.310;2023-10-19T04:37:19;89652.34;;;11.95;100.00
53300;BME280;39187;48.476;8.310;2023-10-19T04:39:45;89656.13;;;11.88;100.00
53300;BME280;39187;48.476;8.310;2023-10-19T04:42:11;89654.72;;;11.93;100.00
53300;BME280;39187;48.476;8.310;2023-10-19T04:44:37;89650.50;;;11.86;100.00
53300;BME280;39187;48.476;8.310;2023-10-19T04:47:03;89652.72;;;11.88;100.00
53300;BME280;39187;48.476;8.310;2023-10-19T04:49:28;89643.16;;;11.81;100.00
53300;BME280;39187;48.476;8.310;2023-10-19T04:51:54;89642.22;;;11.84;100.00
53300;BME280;39187;48.476;8.310;2023-10-19T04:54:19;89648.75;;;11.83;100.00
53300;BME280;39187;48.476;8.310;2023-10-19T04:56:45;89644.63;;;11.82;100.00
53300;BME280;39187;48.476;8.310;2023-10-19T04:59:11;89649.03;;;11.85;100.00
53300;BME280;39187;48.476;8.310;2023-10-19T05:01:36;89643.94;;;11.73;100.00
53300;BME280;39187;48.476;8.310;2023-10-19T05:04:02;89637.06;;;11.81;100.00
53300;BME280;39187;48.476;8.310;2023-10-19T05:06:28;89640.56;;;11.87;100.00
53300;BME280;39187;48.476;8.310;2023-10-19T05:08:54;89644.63;;;11.82;100.00
53300;BME280;39187;48.476;8.310;2023-10-19T05:11:19;89638.56;;;11.82;100.00
53300;BME280;39187;48.476;8.310;2023-10-19T05:13:45;89629.56;;;11.94;100.00
53300;BME280;39187;48.476;8.310;2023-10-19T05:16:10;89634.59;;;11.77;100.00
53300;BME280;39187;48.476;8.310;2023-10-19T05:18:35;89638.00;;;11.92;100.00
53300;BME280;39187;48.476;8.310;2023-10-19T05:21:01;89636.06;;;11.93;100.00
53300;BME280;39187;48.476;8.310;2023-10-19T05:23:27;89634.69;;;11.97;100.00
53300;BME280;39187;48.476;8.310;2023-10-19T05:26:00;89632.41;;;11.90;100.00
53300;BME280;39187;48.476;8.310;2023-10-19T05:28:25;89638.94;;;11.89;100.00
53300;BME280;39187;48.476;8.310;2023-10-19T05:30:51;89636.09;;;12.08;100.00
53300;BME280;39187;48.476;8.310;2023-10-19T05:33:17;89639.03;;;11.95;100.00
53300;BME280;39187;48.476;8.310;2023-10-19T05:35:50;89633.97;;;11.97;100.00
53300;BME280;39187;48.476;8.310;2023-10-19T05:38:16;89633.13;;;11.91;100.00
53300;BME280;39187;48.476;8.310;2023-10-19T05:40:42;89633.03;;;12.00;100.00
53300;BME280;39187;48.476;8.310;2023-10-19T05:43:08;89631.13;;;12.00;100.00
53300;BME280;39187;48.476;8.310;2023-10-19T05:45:34;89619.72;;;12.00;100.00
53300;BME280;39187;48.476;8.310;2023-10-19T05:48:01;89628.00;;;12.02;100.00
53300;BME280;39187;48.476;8.310;2023-10-19T05:50:29;89632.22;;;12.09;100.00
53300;BME280;39187;48.476;8.310;2023-10-19T05:52:55;89634.06;;;12.02;100.00
53300;BME280;39187;48.476;8.310;2023-10-19T05:55:20;89630.75;;;12.08;100.00
53300;BME280;39187;48.476;8.310;2023-10-19T05:57:48;89631.75;;;12.10;100.00
53300;BME280;39187;48.476;8.310;2023-10-19T06:00:15;89625.03;;;12.15;100.00
53300;BME280;39187;48.476;8.310;2023-10-19T06:02:45;89630.28;;;12.24;100.00
53300;BME280;39187;48.476;8.310;2023-10-19T06:05:12;89628.44;;;12.00;100.00
53300;BME280;39187;48.476;8.310;2023-10-19T06:07:41;89625.13;;;12.05;100.00
53300;BME280;39187;48.476;8.310;2023-10-19T06:10:07;89625.78;;;12.15;100.00
53300;BME280;39187;48.476;8.310;2023-10-19T06:12:33;89626.59;;;12.07;100.00
53300;BME280;39187;48.476;8.310;2023-10-19T06:14:59;89623.56;;;11.99;100.00
53300;BME280;39187;48.476;8.310;2023-10-19T06:17:26;89612.09;;;12.08;100.00
53300;BME280;39187;48.476;8.310;2023-10-19T06:19:54;89620.63;;;12.12;100.00
53300;BME280;39187;48.476;8.310;2023-10-19T06:22:19;89624.13;;;12.18;100.00
53300;BME280;39187;48.476;8.310;2023-10-19T06:24:44;89621.72;;;12.20;100.00
53300;BME280;39187;48.476;8.310;2023-10-19T06:27:10;89621.06;;;12.25;100.00
53300;BME280;39187;48.476;8.310;2023-10-19T06:29:36;89635.22;;;12.16;100.00
53300;BME280;39187;48.476;8.310;2023-10-19T06:32:01;89621.06;;;12.39;100.00
53300;BME280;39187;48.476;8.310;2023-10-19T06:34:28;89619.88;;;12.26;100.00
53300;BME280;39187;48.476;8.310;2023-10-19T06:36:53;89628.31;;;12.39;100.00
53300;BME280;39187;48.476;8.310;2023-10-19T06:39:20;89620.59;;;12.41;100.00
53300;BME280;39187;48.476;8.310;2023-10-19T06:41:46;89625.09;;;12.50;100.00
53300;BME280;39187;48.476;8.310;2023-10-19T06:44:13;89628.31;;;12.39;100.00
53300;BME280;39187;48.476;8.310;2023-10-19T06:46:39;89621.97;;;12.51;100.00
53300;BME280;39187;48.476;8.310;2023-10-19T06:49:06;89625.53;;;12.63;100.00
53300;BME280;39187;48.476;8.310;2023-10-19T06:51:33;89617.34;;;12.66;100.00
53300;BME280;39187;48.476;8.310;2023-10-19T06:53:58;89610.38;;;12.74;100.00
53300;BME280;39187;48.476;8.310;2023-10-19T06:56:24;89615.13;;;12.65;100.00
53300;BME280;39187;48.476;8.310;2023-10-19T06:58:50;89607.94;;;12.71;100.00
53300;BME280;39187;48.476;8.310;2023-10-19T07:01:15;89610.94;;;12.78;100.00
53300;BME280;39187;48.476;8.310;2023-10-19T07:03:43;89614.34;;;12.79;100.00
53300;BME280;39187;48.476;8.310;2023-10-19T07:06:09;89616.44;;;12.90;100.00
53300;BME280;39187;48.476;8.310;2023-10-19T07:08:41;89616.78;;;12.97;100.00
53300;BME280;39187;48.476;8.310;2023-10-19T07:11:07;89618.28;;;12.83;100.00
53300;BME280;39187;48.476;8.310;2023-10-19T07:13:33;89617.28;;;12.81;100.00
53300;BME280;39187;48.476;8.310;2023-10-19T07:15:59;89615.50;;;12.93;100.00
53300;BME280;39187;48.476;8.310;2023-10-19T07:18:24;89611.13;;;13.30;100.00
53300;BME280;39187;48.476;8.310;2023-10-19T07:20:51;89616.38;;;13.45;100.00
53300;BME280;39187;48.476;8.310;2023-10-19T07:23:18;89612.34;;;13.75;100.00
53300;BME280;39187;48.476;8.310;2023-10-19T07:25:46;89610.78;;;13.89;100.00
53300;BME280;39187;48.476;8.310;2023-10-19T07:28:14;89612.03;;;14.19;100.00
53300;BME280;39187;48.476;8.310;2023-10-19T07:30:40;89612.53;;;14.49;100.00
53300;BME280;39187;48.476;8.310;2023-10-19T07:33:10;89613.59;;;14.63;100.00
53300;BME280;39187;48.476;8.310;2023-10-19T07:35:36;89617.88;;;14.86;100.00
53300;BME280;39187;48.476;8.310;2023-10-19T07:38:07;89614.88;;;15.10;100.00
53300;BME280;39187;48.476;8.310;2023-10-19T07:40:34;89615.81;;;15.07;100.00
53300;BME280;39187;48.476;8.310;2023-10-19T07:43:00;89617.56;;;15.10;100.00
53300;BME280;39187;48.476;8.310;2023-10-19T07:45:26;89608.78;;;15.09;100.00
53300;BME280;39187;48.476;8.310;2023-10-19T07:47:52;89613.56;;;15.42;100.00
53300;BME280;39187;48.476;8.310;2023-10-19T07:50:17;89622.47;;;15.76;100.00
53300;BME280;39187;48.476;8.310;2023-10-19T07:52:47;89616.91;;;15.91;100.00
53300;BME280;39187;48.476;8.310;2023-10-19T07:55:14;89618.16;;;16.07;100.00
53300;BME280;39187;48.476;8.310;2023-10-19T07:57:41;89614.75;;;16.39;100.00
53300;BME280;39187;48.476;8.310;2023-10-19T08:00:08;89613.78;;;16.15;100.00
53300;BME280;39187;48.476;8.310;2023-10-19T08:02:38;89619.34;;;15.94;100.00
53300;BME280;39187;48.476;8.310;2023-10-19T08:05:06;89611.28;;;15.94;100.00
53300;BME280;39187;48.476;8.310;2023-10-19T08:07:32;89617.72;;;16.36;100.00
53300;BME280;39187;48.476;8.310;2023-10-19T08:09:59;89613.00;;;15.86;100.00
53300;BME280;39187;48.476;8.310;2023-10-19T08:12:25;89613.22;;;15.88;100.00
53300;BME280;39187;48.476;8.310;2023-10-19T08:14:54;89610.03;;;15.73;100.00
53300;BME280;39187;48.476;8.310;2023-10-19T08:17:21;89614.88;;;15.63;100.00
53300;BME280;39187;48.476;8.310;2023-10-19T08:19:46;89608.78;;;15.63;100.00
53300;BME280;39187;48.476;8.310;2023-10-19T08:22:12;89602.19;;;15.58;100.00
53300;BME280;39187;48.476;8.310;2023-10-19T08:24:40;89595.28;;;15.41;100.00
53300;BME280;39187;48.476;8.310;2023-10-19T08:27:09;89618.28;;;15.64;100.00
53300;BME280;39187;48.476;8.310;2023-10-19T08:29:39;89610.16;;;15.47;100.00
53300;BME280;39187;48.476;8.310;2023-10-19T08:32:06;89599.78;;;15.77;100.00
53300;BME280;39187;48.476;8.310;2023-10-19T08:34:35;89597.84;;;15.83;100.00
53300;BME280;39187;48.476;8.310;2023-10-19T08:37:02;89600.72;;;15.69;100.00
53300;BME280;39187;48.476;8.310;2023-10-19T08:39:29;89598.75;;;15.58;100.00
53300;BME280;39187;48.476;8.310;2023-10-19T08:42:02;89593.44;;;15.69;100.00
53300;BME280;39187;48.476;8.310;2023-10-19T08:44:29;89590.25;;;15.71;100.00
53300;BME280;39187;48.476;8.310;2023-10-19T08:46:56;89592.22;;;15.76;100.00
53300;BME280;39187;48.476;8.310;2023-10-19T08:49:22;89590.91;;;15.49;100.00
53300;BME280;39187;48.476;8.310;2023-10-19T08:51:48;89588.19;;;15.43;100.00
53300;BME280;39187;48.476;8.310;2023-10-19T08:54:16;89584.88;;;15.54;100.00
53300;BME280;39187;48.476;8.310;2023-10-19T08:56:42;89587.81;;;15.61;100.00
53300;BME280;39187;48.476;8.310;2023-10-19T08:59:08;89590.28;;;15.76;100.00
53300;BME280;39187;48.476;8.310;2023-10-19T09:01:36;89589.75;;;15.61;100.00
53300;BME280;39187;48.476;8.310;2023-10-19T09:04:02;89584.69;;;15.85;100.00
53300;BME280;39187;48.476;8.310;2023-10-19T09:06:33;89588.47;;;15.51;100.00
53300;BME280;39187;48.476;8.310;2023-10-19T09:09:07;89587.97;;;15.41;100.00
53300;BME280;39187;48.476;8.310;2023-10-19T09:11:34;89586.66;;;15.20;100.00
53300;BME280;39187;48.476;8.310;2023-10-19T09:14:00;89589.13;;;15.29;100.00
53300;BME280;39187;48.476;8.310;2023-10-19T09:16:29;89585.63;;;15.12;100.00
53300;BME280;39187;48.476;8.310;2023-10-19T09:18:56;89584.56;;;15.46;100.00
53300;BME280;39187;48.476;8.310;2023-10-19T09:21:22;89584.09;;;14.94;100.00
53300;BME280;39187;48.476;8.310;2023-10-19T09:23:52;89580.50;;;15.03;100.00
53300;BME280;39187;48.476;8.310;2023-10-19T09:26:18;89580.25;;;15.06;100.00
53300;BME280;39187;48.476;8.310;2023-10-19T09:28:48;89578.38;;;15.23;100.00
53300;BME280;39187;48.476;8.310;2023-10-19T09:31:14;89577.81;;;15.03;100.00
53300;BME280;39187;48.476;8.310;2023-10-19T09:33:44;89579.88;;;14.82;100.00
53300;BME280;39187;48.476;8.310;2023-10-19T09:36:10;89580.53;;;14.66;100.00
53300;BME280;39187;48.476;8.310;2023-10-19T09:38:46;89576.69;;;14.41;100.00
53300;BME280;39187;48.476;8.310;2023-10-19T09:41:22;89587.53;;;14.26;100.00
53300;BME280;39187;48.476;8.310;2023-10-19T09:44:02;89589.13;;;14.13;100.00
53300;BME280;39187;48.476;8.310;2023-10-19T09:46:32;89592.72;;;14.10;100.00
53300;BME280;39187;48.476;8.310;2023-10-19T09:49:02;89593.09;;;13.97;100.00
53300;BME280;39187;48.476;8.310;2023-10-19T09:51:28;89594.84;;;13.74;100.00
53300;BME280;39187;48.476;8.310;2023-10-19T09:56:55;89596.19;;;13.64;100.00
53300;BME280;39187;48.476;8.310;2023-10-19T09:59:32;89588.34;;;13.35;100.00
53300;BME280;39187;48.476;8.310;2023-10-19T10:02:07;89597.59;;;13.59;100.00
53300;BME280;39187;48.476;8.310;2023-10-19T10:04:34;89599.69;;;13.50;100.00
53300;BME280;39187;48.476;8.310;2023-10-19T10:07:04;89600.50;;;13.36;100.00
53300;BME280;39187;48.476;8.310;2023-10-19T10:09:34;89600.50;;;13.36;100.00
53300;BME280;39187;48.476;8.310;2023-10-19T10:12:24;89592.22;;;13.13;100.00
53300;BME280;39187;48.476;8.310;2023-10-19T10:15:01;89596.19;;;13.18;100.00
53300;BME280;39187;48.476;8.310;2023-10-19T10:17:27;89584.19;;;12.93;100.00
53300;BME280;39187;48.476;8.310;2023-10-19T10:20:39;89584.22;;;13.13;100.00
53300;BME280;39187;48.476;8.310;2023-10-19T10:22:43;89584.44;;;12.95;100.00
53300;BME280;39187;48.476;8.310;2023-10-19T10:25:25;89571.66;;;12.99;100.00
53300;BME280;39187;48.476;8.310;2023-10-19T10:27:55;89570.81;;;12.93;100.00
53300;BME280;39187;48.476;8.310;2023-10-19T10:30:21;89559.72;;;13.15;100.00
53300;BME280;39187;48.476;8.310;2023-10-19T10:32:49;89560.47;;;12.80;100.00
53300;BME280;39187;48.476;8.310;2023-10-19T10:38:07;89570.28;;;12.69;100.00
53300;BME280;39187;48.476;8.310;2023-10-19T10:40:43;89560.91;;;12.73;100.00
53300;BME280;39187;48.476;8.310;2023-10-19T10:43:09;89555.47;;;12.68;100.00
53300;BME280;39187;48.476;8.310;2023-10-19T10:45:36;89547.78;;;12.55;100.00
53300;BME280;39187;48.476;8.310;2023-10-19T10:48:02;89538.38;;;12.60;100.00
53300;BME280;39187;48.476;8.310;2023-10-19T10:50:29;89524.88;;;12.49;100.00
53300;BME280;39187;48.476;8.310;2023-10-19T10:52:55;89523.34;;;12.62;100.00
53300;BME280;39187;48.476;8.310;2023-10-19T10:55:23;89516.91;;;12.69;100.00
53300;BME280;39187;48.476;8.310;2023-10-19T10:57:52;89519.78;;;12.65;100.00
53300;BME280;39187;48.476;8.310;2023-10-19T11:00:19;89517.50;;;12.58;100.00
53300;BME280;39187;48.476;8.310;2023-10-19T11:02:47;89522.16;;;12.63;100.00
53300;BME280;39187;48.476;8.310;2023-10-19T11:05:16;89511.91;;;12.76;100.00
53300;BME280;39187;48.476;8.310;2023-10-19T11:08:12;89507.06;;;12.80;100.00
53300;BME280;39187;48.476;8.310;2023-10-19T11:10:39;89507.41;;;12.68;100.00
53300;BME280;39187;48.476;8.310;2023-10-19T11:13:07;89498.81;;;12.58;100.00
53300;BME280;39187;48.476;8.310;2023-10-19T11:15:33;89500.28;;;12.59;100.00
53300;BME280;39187;48.476;8.310;2023-10-19T11:17:59;89487.06;;;12.70;100.00
53300;BME280;39187;48.476;8.310;2023-10-19T11:20:25;89473.25;;;12.72;100.00
53300;BME280;39187;48.476;8.310;2023-10-19T11:22:56;89472.84;;;12.79;100.00
53300;BME280;39187;48.476;8.310;2023-10-19T11:25:25;89479.63;;;13.00;100.00
53300;BME280;39187;48.476;8.310;2023-10-19T11:28:00;89476.72;;;12.98;100.00
53300;BME280;39187;48.476;8.310;2023-10-19T11:30:31;89476.09;;;12.89;100.00
53300;BME280;39187;48.476;8.310;2023-10-19T11:32:57;89478.19;;;12.79;100.00
53300;BME280;39187;48.476;8.310;2023-10-19T11:35:29;89479.78;;;12.91;100.00
53300;BME280;39187;48.476;8.310;2023-10-19T11:37:57;89476.38;;;12.91;100.00
53300;BME280;39187;48.476;8.310;2023-10-19T11:40:23;89475.25;;;12.77;100.00
53300;BME280;39187;48.476;8.310;2023-10-19T11:42:51;89479.97;;;12.88;100.00
53300;BME280;39187;48.476;8.310;2023-10-19T11:45:17;89490.00;;;12.72;100.00
53300;BME280;39187;48.476;8.310;2023-10-19T11:47:44;89487.88;;;12.76;100.00
53300;BME280;39187;48.476;8.310;2023-10-19T11:50:13;89492.47;;;12.96;100.00
53300;BME280;39187;48.476;8.310;2023-10-19T11:52:45;89488.03;;;12.67;100.00
53300;BME280;39187;48.476;8.310;2023-10-19T11:55:15;89493.75;;;12.60;100.00
53300;BME280;39187;48.476;8.310;2023-10-19T11:57:44;89497.34;;;12.57;100.00
53300;BME280;39187;48.476;8.310;2023-10-19T12:00:11;89491.94;;;12.72;100.00
53300;BME280;39187;48.476;8.310;2023-10-19T12:02:58;89493.94;;;12.77;100.00
53300;BME280;39187;48.476;8.310;2023-10-19T12:05:24;89502.47;;;12.81;100.00
53300;BME280;39187;48.476;8.310;2023-10-19T12:07:50;89491.66;;;12.70;100.00
53300;BME280;39187;48.476;8.310;2023-10-19T12:10:17;89498.66;;;12.88;100.00
53300;BME280;39187;48.476;8.310;2023-10-19T12:12:45;89494.22;;;12.79;100.00
53300;BME280;39187;48.476;8.310;2023-10-19T12:15:11;89499.47;;;12.94;100.00
53300;BME280;39187;48.476;8.310;2023-10-19T12:17:40;89504.41;;;12.80;100.00
53300;BME280;39187;48.476;8.310;2023-10-19T12:20:06;89499.97;;;12.72;100.00
53300;BME280;39187;48.476;8.310;2023-10-19T12:22:32;89495.53;;;12.89;100.00
53300;BME280;39187;48.476;8.310;2023-10-19T12:25:04;89494.06;;;12.68;100.00
53300;BME280;39187;48.476;8.310;2023-10-19T12:27:30;89494.69;;;12.77;100.00
53300;BME280;39187;48.476;8.310;2023-10-19T12:29:55;89489.78;;;12.96;100.00
53300;BME280;39187;48.476;8.310;2023-10-19T12:32:21;89491.88;;;12.87;100.00
53300;BME280;39187;48.476;8.310;2023-10-19T12:34:47;89488.13;;;12.99;100.00
53300;BME280;39187;48.476;8.310;2023-10-19T12:37:21;89481.38;;;12.83;100.00
53300;BME280;39187;48.476;8.310;2023-10-19T12:39:46;89476.66;;;12.93;100.00
53300;BME280;39187;48.476;8.310;2023-10-19T12:42:16;89478.44;;;13.01;100.00
53300;BME280;39187;48.476;8.310;2023-10-19T12:44:41;89469.50;;;12.84;100.00
53300;BME280;39187;48.476;8.310;2023-10-19T12:47:11;89466.91;;;12.90;100.00
53300;BME280;39187;48.476;8.310;2023-10-19T12:49:40;89464.88;;;13.05;100.00
53300;BME280;39187;48.476;8.310;2023-10-19T12:52:07;89464.63;;;13.03;100.00
53300;BME280;39187;48.476;8.310;2023-10-19T12:54:34;89459.50;;;12.99;100.00
53300;BME280;39187;48.476;8.310;2023-10-19T12:57:06;89455.06;;;12.96;100.00
53300;BME280;39187;48.476;8.310;2023-10-19T12:59:35;89452.41;;;12.96;100.00
53300;BME280;39187;48.476;8.310;2023-10-19T13:02:07;89448.63;;;13.08;100.00
53300;BME280;39187;48.476;8.310;2023-10-19T13:04:34;89446.03;;;13.14;100.00
53300;BME280;39187;48.476;8.310;2023-10-19T13:07:00;89443.28;;;13.08;100.00